GAMB

Mopti Airport

Mali
METAR GAMB 151500Z 36010KT CAVOK 32/01 Q1015
Observed Flight Rules
Dec-15 @ 15:00 UTC (2 hours ago) Visual Flight Rules
Wind Visibility Clouds
360° at 10 knots 10,000+ meters
  • Clear skies
Temperatures Readings
Current 32°C / 90°F
Dewpoint 1°C / 34°F
Humidity 14%
Altimeter 29.97" Hg
Pressure 1015 hPa
Elevation 272
METAR GAMB 151500Z 36010KT CAVOK 32/01 Q1015
Observed Flight Rules
Dec-15 @ 15:00 UTC
(2 hours ago)
VFR
Wind Visibility
360° at 10 knots 10,000+ meters
Clouds
  • Clear skies
Temperature Dewpoint
32°C / 90°F 1°C / 34°F
Humidity Altimeter Pressure
14% 29.97" Hg 1015 hPa